Terminal Aerodrome Forecast
Issued by NWS Sterling, VA

Home | Current Version | Previous Version | Text Only | Print | Product List | Glossary On
Versions: 1 2 3 4 5 6 7 8 9 10 11 12 13 14 15 16 17 18 19 20 21 22 23 24 25 26 27 28 29 30 31 32 33 34 35 36 37 38 39 40 41 42 43 44 45 46 47 48 49 50
000
FTUS41 KLWX 181339 AAB
TAFBWI
TAF AMD
KBWI 181339Z 1814/1918 VRB03KT 1/2SM FG OVC005
     FM181500 27005KT 2SM BR BKN015
     FM181800 29006KT 4SM BR SCT040
     FM182000 29005KT P6SM BKN025
     FM190400 32004KT P6SM SCT130
     FM191000 02004KT P6SM BKN090
     FM191700 09006KT P6SM BKN025=

USA.gov is the U.S. government's official web portal to all federal, state and local government web resources and services.